2019/09/23 07:20 EDDV 230720Z 29003KT 1800 -DZ BKN007 14/13 Q1012 BECMG 4500 SCT007 BKN010